Avelgem, Belgium
Current Conditions -  °F | °C
As of 9:30 PM on Sunday 25 Jan 2015 (Local Time) from LFQQ Reporting Station
Overcast Overcast  
Wind Chill: 36°   Ceiling: 2900
Heat Index: 41°   Visibility: 6mi
Dew Point: 37°   Wind: 8mph
Humidity: 87%   Direction: 200°SSW
Pressure: 30.36"   Gusts: NA
Location:  50.78°N, 3.45°E
Report Text: LFQQ 252030Z 20007KT 9999 OVC029 05/03 Q1028 NOSIG
Loading
Personal Weather Stations






























Interactive Weather Map New forecast layout! Learn more

10-Day Weather Forecast

Advertisements
Track Severe Weather on mobile